• Join FlightAware (Why Join?)
  • Login
  • US Flag 
Rudolph Flight #1: Arrived! 
08:50AM EST


 

Airport Tracker/Info


-or-


 

Live Flight TrackerFlight Track Log ✈ DAL872 ✈ 13-Jul-2014 ✈ KDCA - KATL

Flight Track Log - Related Links

Times and Time Zones

All times are in EDT time to prevent confusion due to time zone crossing. See the DAL872 flight status page for this flight to view local times or setup timezone preferences in your user account.

Time Position Orientation Groundspeed Altitude Reporting Facility
EDT Latitude Longitude Course Direction KTS MPH feet Rate Location/Type
07:18AM 38.8000 -77.0333 236° Southwest 167 192 1,600  Level Potomac TRACON
07:19AM 38.7667 -77.0667 218° Southwest 236 272 3,100 2,100 Climbing Potomac TRACON
07:20AM 38.6549 -77.3999 234° Southwest  Level FlightAware Approximate
07:20AM 38.7500 -77.1500 256° West 256 295 5,900  Level Potomac TRACON
07:20AM 38.7167 -77.2333 243° Southwest 268 308 8,400 2,520 Climbing Potomac TRACON
07:21AM 38.5962 -77.5281 247° West  Level FlightAware Approximate
07:21AM 38.6833 -77.3167 243° Southwest 280 322 10,700  Level Potomac TRACON
07:22AM 38.5365 -77.6558 233° Southwest  Level FlightAware Approximate
07:23AM 38.4641 -77.7717 236° Southwest  Level FlightAware Approximate
07:23AM 38.6000 -77.5069 241° Southwest 349 402 13,400  Level Washington Center
07:24AM 38.5500 -77.6278 242° Southwest 368 423 15,800 2,040 Climbing Washington Center
07:25AM 38.5022 -77.7353 240° Southwest 384 442 17,600 1,740 Climbing Washington Center
07:26AM 38.4397 -77.8581 237° Southwest 399 459 19,400 1,800 Climbing Washington Center
07:27AM 38.3747 -77.9833 237° Southwest 413 475 21,200 1,680 Climbing Washington Center
07:28AM 38.3053 -78.1106 235° Southwest 425 489 22,800 1,380 Climbing Washington Center
07:29AM 38.2358 -78.2431 236° Southwest 444 511 24,100 1,620 Climbing Washington Center
07:30AM 38.1639 -78.3778 236° Southwest 459 528 26,100 2,160 Climbing Washington Center
07:31AM 38.1044 -78.5131 241° Southwest 452 520 28,400 1,620 Climbing Washington Center
07:32AM 38.0464 -78.6636 244° Southwest 437 503 29,400 900 Climbing Washington Center
07:33AM 37.9617 -78.7892 229° Southwest 450 518 30,200 1,140 Climbing Washington Center
07:34AM 37.8792 -78.9147 230° Southwest 468 539 31,700 1,380 Climbing Washington Center
07:35AM 37.7964 -79.0397 230° Southwest 478 550 33,000 1,200 Climbing Washington Center
07:36AM 37.7133 -79.1647 230° Southwest 472 543 34,200 960 Climbing Washington Center
07:37AM 37.6103 -79.2594 216° Southwest 466 536 35,000 540 Climbing Washington Center
07:38AM 37.5011 -79.3536 214° Southwest 472 543 35,400 660 Climbing Washington Center
07:39AM 37.3817 -79.4392 210° Southwest 490 564 36,400 900 Climbing Washington Center
07:40AM 37.2819 -79.5464 221° Southwest 490 564 37,200 720 Climbing Washington Center
07:41AM 37.2047 -79.6781 234° Southwest 474 545 37,900 240 Climbing Washington Center
07:43AM 37.0767 -79.8869 233° Southwest 474 545 38,000  Climbing Atlanta Center
07:44AM 36.9975 -80.0158 232° Southwest 474 545 38,000  Level Atlanta Center
07:45AM 36.9183 -80.1444 232° Southwest 474 545 38,000  Level Atlanta Center
07:46AM 36.8367 -80.2731 232° Southwest 474 545 38,000  Level Atlanta Center
07:47AM 36.7572 -80.4011 232° Southwest 480 552 38,000  Level Atlanta Center
07:48AM 36.6775 -80.5314 233° Southwest 480 552 38,000 -540 Level Atlanta Center
07:49AM 36.5939 -80.6722 234° Southwest 467 537 37,000 -540 Descending Atlanta Center
07:50AM 36.5139 -80.7994 232° Southwest 467 537 37,000  Level Atlanta Center
07:51AM 36.4358 -80.9242 232° Southwest 467 537 37,000  Level Atlanta Center
07:52AM 36.3558 -81.0561 233° Southwest 467 537 37,000  Level Atlanta Center
07:53AM 36.2753 -81.1825 232° Southwest 467 537 37,000  Level Atlanta Center
07:54AM 36.1947 -81.3089 232° Southwest 472 543 37,000  Level Atlanta Center
07:55AM 36.1119 -81.4378 232° Southwest 472 543 37,000 -120 Level Atlanta Center
07:56AM 36.0311 -81.5636 232° Southwest 472 543 36,800 -540 Descending Atlanta Center
07:57AM 35.9503 -81.6917 232° Southwest 472 543 36,000 -420 Descending Atlanta Center
07:58AM 35.8692 -81.8197 232° Southwest 479 551 36,000  Level Atlanta Center
07:59AM 35.7858 -81.9397 229° Southwest 479 551 36,000  Level Atlanta Center
08:00AM 35.6897 -82.0597 225° Southwest 473 544 36,000  Level Atlanta Center
08:01AM 35.6019 -82.1717 226° Southwest 473 544 36,000  Level Atlanta Center
08:02AM 35.5117 -82.2858 226° Southwest 468 539 36,000  Level Atlanta Center
08:03AM 35.4194 -82.4025 226° Southwest 468 539 36,000 -360 Level Atlanta Center
08:04AM 35.3353 -82.5111 226° Southwest 477 549 35,300 -540 Descending Atlanta Center
08:05AM 35.2344 -82.6325 225° Southwest 477 549 35,000 -600 Descending Atlanta Center
08:06AM 35.1356 -82.7383 221° Southwest 477 549 34,100 -960 Descending Atlanta Center
08:07AM 35.0364 -82.8439 221° Southwest 477 549 33,100 -1,320 Descending Atlanta Center
08:08AM 34.9372 -82.9519 222° Southwest 477 549 31,500 -1,800 Descending Atlanta Center
08:09AM 34.8419 -83.0417 218° Southwest 482 555 29,600 -2,100 Descending Atlanta Center
08:10AM 34.7531 -83.1464 224° Southwest 470 541 27,400 -2,160 Descending Atlanta Center
08:11AM 34.6600 -83.2408 220° Southwest 457 526 25,300 -2,160 Descending Atlanta Center
08:12AM 34.5708 -83.3400 222° Southwest 445 512 23,100 -2,220 Descending Atlanta Center
08:13AM 34.4794 -83.4339 220° Southwest 445 512 20,900 -2,160 Descending Atlanta Center
08:14AM 34.3964 -83.5228 221° Southwest 428 493 18,800 -2,040 Descending Atlanta Center
08:15AM 34.3172 -83.6036 220° Southwest 400 460 16,900 -2,040 Descending Atlanta Center
08:16AM 34.2403 -83.6844 221° Southwest 378 435 14,800 -2,040 Descending Atlanta Center
08:17AM 34.1656 -83.7628 221° Southwest 372 428 12,900 -1,440 Descending Atlanta Center
08:18AM 34.0947 -83.8381 221° Southwest 358 412 12,000 -1,020 Descending Atlanta Center
08:19AM 34.0500 -83.8833 220° Southwest 310 357 11,200 -1,500 Descending Atlanta TRACON
08:20AM 33.9833 -83.9667 226° Southwest 289 333 9,500 -1,140 Descending Atlanta TRACON
08:21AM 33.9000 -83.9667 180° South 294 338 9,000 -360 Descending Atlanta TRACON
08:22AM 33.8167 -83.9667 180° South 295 339 8,800 -600 Descending Atlanta TRACON
08:23AM 33.7336 -84.0239 210° Southwest 287 330 7,700 -1,140 Descending Atlanta Center
08:25AM 33.6333 -84.1167 218° Southwest 235 270 5,500 -1,200 Descending Atlanta TRACON
08:26AM 33.6333 -84.2000 270° West 235 270 4,500 -1,200 Descending Atlanta TRACON
08:27AM 33.6333 -84.2833 270° West 210 242 3,100 -1,140 Descending Atlanta TRACON
08:28AM 33.6333 -84.3333 270° West 185 213 2,300 -900 Descending Atlanta TRACON
08:29AM 33.6333 -84.3833 270° West 157 181 1,500 -840 Descending Atlanta TRACON